NCAR-RAP Real-Time Weather Data

Output produced by METARs form (02 October 2014  04:20 UTC)
found at http://weather.rap.ucar.edu/surface/
 
Conditions at: KLOU observed 02 October 2014  03:53 UTC
Temperature: 21.1°C (70°F)
Dewpoint: 14.4°C (58°F) [RH = 66%]
Pressure (altimeter): 29.98 inches Hg (1015.3 mb)
[Sea-level pressure: 1014.8 mb]
Winds: from the SE (130 degrees) at 3 MPH (3 knots; 1.6 m/s)
Visibility: 10 or more miles (16+ km)
Ceiling: at least 12,000 feet AGL
Clouds: sky clear below 12,000 feet AGL
Present Weather: no significant weather observed at this time
KLOU 020353Z 13003KT 10SM CLR 21/14 A2998 RMK AO2 SLP148 T02110144